Terminal Aerodrome Forecast
Issued by NWS Raleigh/Durham, NC

Home | Current Version | Previous Version | Text Only | Print | Product List | Glossary On
Versions: 1 2 3 4 5 6 7 8 9 10 11 12 13 14 15 16 17 18 19 20 21 22 23 24 25 26 27 28 29 30 31 32 33 34 35 36 37 38 39 40 41 42 43 44 45 46 47 48 49
919
FTUS42 KRAH 022326
TAFRDU
TAF
KRDU 022326Z 0300/0324 16004KT P6SM SCT030 BKN120
     FM030200 21009KT P6SM SCT040 BKN180
     FM030500 19010KT P6SM VCSH BKN020 OVC045
     FM030800 18009KT 4SM BR VCSH OVC005
     FM031500 23010KT P6SM OVC015
     FM031800 28007KT P6SM BKN035=

USA.gov is the U.S. government's official web portal to all federal, state and local government web resources and services.